sensor_id;sensor_type;location;lat;lon;timestamp;temperature;humidity
46730;DHT22;32476;50.002;11.854;2023-06-01T00:00:10;11.30;93.50
46730;DHT22;32476;50.002;11.854;2023-06-01T00:02:40;11.50;93.50
46730;DHT22;32476;50.002;11.854;2023-06-01T00:05:08;11.40;92.90
46730;DHT22;32476;50.002;11.854;2023-06-01T00:07:34;11.30;93.30
46730;DHT22;32476;50.002;11.854;2023-06-01T00:10:00;11.10;93.90
46730;DHT22;32476;50.002;11.854;2023-06-01T00:12:27;11.00;93.90
46730;DHT22;32476;50.002;11.854;2023-06-01T00:14:53;10.80;95.40
46730;DHT22;32476;50.002;11.854;2023-06-01T00:17:19;10.80;95.40
46730;DHT22;32476;50.002;11.854;2023-06-01T00:19:46;10.70;96.10
46730;DHT22;32476;50.002;11.854;2023-06-01T00:22:13;10.60;96.00
46730;DHT22;32476;50.002;11.854;2023-06-01T00:24:39;10.50;95.80
46730;DHT22;32476;50.002;11.854;2023-06-01T00:27:06;10.40;97.20
46730;DHT22;32476;50.002;11.854;2023-06-01T00:29:33;10.30;97.70
46730;DHT22;32476;50.002;11.854;2023-06-01T00:31:59;10.40;97.50
46730;DHT22;32476;50.002;11.854;2023-06-01T00:34:26;10.50;96.90
46730;DHT22;32476;50.002;11.854;2023-06-01T00:36:52;10.40;97.00
46730;DHT22;32476;50.002;11.854;2023-06-01T00:39:18;10.40;97.50
46730;DHT22;32476;50.002;11.854;2023-06-01T00:41:46;10.40;97.40
46730;DHT22;32476;50.002;11.854;2023-06-01T00:44:11;10.40;97.30
46730;DHT22;32476;50.002;11.854;2023-06-01T00:46:37;10.50;97.10
46730;DHT22;32476;50.002;11.854;2023-06-01T00:49:05;10.50;96.90
46730;DHT22;32476;50.002;11.854;2023-06-01T00:51:32;10.50;97.00
46730;DHT22;32476;50.002;11.854;2023-06-01T00:53:59;10.50;97.00
46730;DHT22;32476;50.002;11.854;2023-06-01T00:56:27;10.40;97.10
46730;DHT22;32476;50.002;11.854;2023-06-01T00:58:54;10.40;97.70
46730;DHT22;32476;50.002;11.854;2023-06-01T01:01:20;10.50;97.40
46730;DHT22;32476;50.002;11.854;2023-06-01T01:03:50;10.60;97.30
46730;DHT22;32476;50.002;11.854;2023-06-01T01:06:49;10.60;97.20
46730;DHT22;32476;50.002;11.854;2023-06-01T01:09:36;10.50;97.80
46730;DHT22;32476;50.002;11.854;2023-06-01T01:15:23;10.10;97.50
46730;DHT22;32476;50.002;11.854;2023-06-01T01:18:02;10.00;98.20
46730;DHT22;32476;50.002;11.854;2023-06-01T01:20:40;10.30;97.80
46730;DHT22;32476;50.002;11.854;2023-06-01T01:26:14;10.20;98.10
46730;DHT22;32476;50.002;11.854;2023-06-01T01:29:14;10.30;97.60
46730;DHT22;32476;50.002;11.854;2023-06-01T01:31:43;10.50;97.40
46730;DHT22;32476;50.002;11.854;2023-06-01T01:34:10;10.50;97.50
46730;DHT22;32476;50.002;11.854;2023-06-01T01:36:37;10.50;97.90
46730;DHT22;32476;50.002;11.854;2023-06-01T01:39:04;10.50;98.20
46730;DHT22;32476;50.002;11.854;2023-06-01T01:41:31;10.40;98.70
46730;DHT22;32476;50.002;11.854;2023-06-01T01:43:57;10.30;98.90
46730;DHT22;32476;50.002;11.854;2023-06-01T01:46:32;10.30;99.30
46730;DHT22;32476;50.002;11.854;2023-06-01T01:49:20;10.30;98.80
46730;DHT22;32476;50.002;11.854;2023-06-01T01:54:24;10.70;97.20
46730;DHT22;32476;50.002;11.854;2023-06-01T01:56:53;10.90;96.50
46730;DHT22;32476;50.002;11.854;2023-06-01T01:59:25;11.10;95.70
46730;DHT22;32476;50.002;11.854;2023-06-01T02:01:52;11.40;94.80
46730;DHT22;32476;50.002;11.854;2023-06-01T02:04:19;11.50;94.40
46730;DHT22;32476;50.002;11.854;2023-06-01T02:06:46;11.70;93.80
46730;DHT22;32476;50.002;11.854;2023-06-01T02:09:12;11.80;93.60
46730;DHT22;32476;50.002;11.854;2023-06-01T02:11:38;11.90;93.40
46730;DHT22;32476;50.002;11.854;2023-06-01T02:14:05;12.00;93.10
46730;DHT22;32476;50.002;11.854;2023-06-01T02:16:31;12.00;93.10
46730;DHT22;32476;50.002;11.854;2023-06-01T02:18:57;12.10;93.00
46730;DHT22;32476;50.002;11.854;2023-06-01T02:21:25;12.10;92.80
46730;DHT22;32476;50.002;11.854;2023-06-01T02:23:52;12.10;92.80
46730;DHT22;32476;50.002;11.854;2023-06-01T02:26:18;12.20;92.90
46730;DHT22;32476;50.002;11.854;2023-06-01T02:28:45;12.20;93.00
46730;DHT22;32476;50.002;11.854;2023-06-01T02:31:13;12.10;93.20
46730;DHT22;32476;50.002;11.854;2023-06-01T02:33:42;12.10;93.40
46730;DHT22;32476;50.002;11.854;2023-06-01T02:36:09;12.00;93.70
46730;DHT22;32476;50.002;11.854;2023-06-01T02:38:35;12.00;93.90
46730;DHT22;32476;50.002;11.854;2023-06-01T02:41:01;12.00;94.00
46730;DHT22;32476;50.002;11.854;2023-06-01T02:43:29;12.00;94.20
46730;DHT22;32476;50.002;11.854;2023-06-01T02:45:55;11.90;94.50
46730;DHT22;32476;50.002;11.854;2023-06-01T02:48:21;11.90;94.70
46730;DHT22;32476;50.002;11.854;2023-06-01T02:50:48;11.80;94.90
46730;DHT22;32476;50.002;11.854;2023-06-01T02:53:14;11.80;95.30
46730;DHT22;32476;50.002;11.854;2023-06-01T02:55:41;11.80;95.30
46730;DHT22;32476;50.002;11.854;2023-06-01T02:58:08;12.00;95.20
46730;DHT22;32476;50.002;11.854;2023-06-01T03:00:40;11.90;95.10
46730;DHT22;32476;50.002;11.854;2023-06-01T03:03:08;12.00;95.10
46730;DHT22;32476;50.002;11.854;2023-06-01T03:05:35;12.10;95.00
46730;DHT22;32476;50.002;11.854;2023-06-01T03:08:01;12.10;95.00
46730;DHT22;32476;50.002;11.854;2023-06-01T03:10:29;12.10;94.90
46730;DHT22;32476;50.002;11.854;2023-06-01T03:12:55;12.20;94.80
46730;DHT22;32476;50.002;11.854;2023-06-01T03:15:21;12.20;94.80
46730;DHT22;32476;50.002;11.854;2023-06-01T03:17:48;12.20;94.70
46730;DHT22;32476;50.002;11.854;2023-06-01T03:20:14;12.20;94.60
46730;DHT22;32476;50.002;11.854;2023-06-01T03:22:42;12.20;94.60
46730;DHT22;32476;50.002;11.854;2023-06-01T03:25:13;12.20;94.30
46730;DHT22;32476;50.002;11.854;2023-06-01T03:27:39;12.40;93.80
46730;DHT22;32476;50.002;11.854;2023-06-01T03:30:06;12.40;93.50
46730;DHT22;32476;50.002;11.854;2023-06-01T03:32:38;12.40;93.20
46730;DHT22;32476;50.002;11.854;2023-06-01T03:35:08;12.40;92.80
46730;DHT22;32476;50.002;11.854;2023-06-01T03:37:35;12.50;92.40
46730;DHT22;32476;50.002;11.854;2023-06-01T03:40:05;12.50;92.30
46730;DHT22;32476;50.002;11.854;2023-06-01T03:42:41;12.50;91.80
46730;DHT22;32476;50.002;11.854;2023-06-01T03:45:14;12.50;91.90
46730;DHT22;32476;50.002;11.854;2023-06-01T03:47:42;12.50;91.80
46730;DHT22;32476;50.002;11.854;2023-06-01T03:50:09;12.50;91.80
46730;DHT22;32476;50.002;11.854;2023-06-01T03:52:37;12.50;91.70
46730;DHT22;32476;50.002;11.854;2023-06-01T03:55:05;12.50;91.50
46730;DHT22;32476;50.002;11.854;2023-06-01T03:57:34;12.50;91.60
46730;DHT22;32476;50.002;11.854;2023-06-01T04:00:07;12.50;91.70
46730;DHT22;32476;50.002;11.854;2023-06-01T04:02:57;12.50;91.90
46730;DHT22;32476;50.002;11.854;2023-06-01T04:05:26;12.60;91.70
46730;DHT22;32476;50.002;11.854;2023-06-01T04:07:53;12.50;91.70
46730;DHT22;32476;50.002;11.854;2023-06-01T04:10:20;12.60;91.60
46730;DHT22;32476;50.002;11.854;2023-06-01T04:12:49;12.60;91.80
46730;DHT22;32476;50.002;11.854;2023-06-01T04:15:17;12.70;91.60
46730;DHT22;32476;50.002;11.854;2023-06-01T04:17:44;12.70;91.80
46730;DHT22;32476;50.002;11.854;2023-06-01T04:20:16;12.70;92.00
46730;DHT22;32476;50.002;11.854;2023-06-01T04:22:43;12.70;91.80
46730;DHT22;32476;50.002;11.854;2023-06-01T04:25:13;12.70;92.00
46730;DHT22;32476;50.002;11.854;2023-06-01T04:27:47;12.80;92.10
46730;DHT22;32476;50.002;11.854;2023-06-01T04:30:16;12.80;91.90
46730;DHT22;32476;50.002;11.854;2023-06-01T04:32:42;12.80;92.00
46730;DHT22;32476;50.002;11.854;2023-06-01T04:35:10;12.90;91.90
46730;DHT22;32476;50.002;11.854;2023-06-01T04:37:38;12.90;91.70
46730;DHT22;32476;50.002;11.854;2023-06-01T04:40:07;13.00;91.80
46730;DHT22;32476;50.002;11.854;2023-06-01T04:42:39;13.00;91.60
46730;DHT22;32476;50.002;11.854;2023-06-01T04:45:09;13.10;91.60
46730;DHT22;32476;50.002;11.854;2023-06-01T04:47:36;13.20;91.50
46730;DHT22;32476;50.002;11.854;2023-06-01T04:50:06;13.30;91.20
46730;DHT22;32476;50.002;11.854;2023-06-01T04:52:38;13.40;91.30
46730;DHT22;32476;50.002;11.854;2023-06-01T04:55:05;13.50;90.90
46730;DHT22;32476;50.002;11.854;2023-06-01T04:57:33;13.60;91.20
46730;DHT22;32476;50.002;11.854;2023-06-01T05:00:06;13.70;90.80
46730;DHT22;32476;50.002;11.854;2023-06-01T05:02:40;13.80;90.60
46730;DHT22;32476;50.002;11.854;2023-06-01T05:05:08;13.90;90.30
46730;DHT22;32476;50.002;11.854;2023-06-01T05:07:35;14.00;90.40
46730;DHT22;32476;50.002;11.854;2023-06-01T05:10:06;14.10;89.50
46730;DHT22;32476;50.002;11.854;2023-06-01T05:12:35;14.20;90.20
46730;DHT22;32476;50.002;11.854;2023-06-01T05:15:03;14.20;90.20
46730;DHT22;32476;50.002;11.854;2023-06-01T05:17:30;14.30;89.80
46730;DHT22;32476;50.002;11.854;2023-06-01T05:19:57;14.50;88.20
46730;DHT22;32476;50.002;11.854;2023-06-01T05:22:24;14.60;89.10
46730;DHT22;32476;50.002;11.854;2023-06-01T05:24:50;14.60;88.80
46730;DHT22;32476;50.002;11.854;2023-06-01T05:27:18;14.70;88.50
46730;DHT22;32476;50.002;11.854;2023-06-01T05:29:44;14.80;87.20
46730;DHT22;32476;50.002;11.854;2023-06-01T05:32:10;14.90;88.40
46730;DHT22;32476;50.002;11.854;2023-06-01T05:34:37;14.90;88.00
46730;DHT22;32476;50.002;11.854;2023-06-01T05:37:03;14.90;87.80
46730;DHT22;32476;50.002;11.854;2023-06-01T05:39:30;14.90;88.80
46730;DHT22;32476;50.002;11.854;2023-06-01T05:41:58;14.90;88.20
46730;DHT22;32476;50.002;11.854;2023-06-01T05:44:24;14.90;89.80
46730;DHT22;32476;50.002;11.854;2023-06-01T05:46:51;14.90;90.00
46730;DHT22;32476;50.002;11.854;2023-06-01T05:49:19;14.90;90.20
46730;DHT22;32476;50.002;11.854;2023-06-01T05:51:45;14.90;90.40
46730;DHT22;32476;50.002;11.854;2023-06-01T05:54:12;15.00;90.60
46730;DHT22;32476;50.002;11.854;2023-06-01T05:56:39;15.10;90.30
46730;DHT22;32476;50.002;11.854;2023-06-01T05:59:08;15.20;88.90
46730;DHT22;32476;50.002;11.854;2023-06-01T06:01:34;15.30;89.40
46730;DHT22;32476;50.002;11.854;2023-06-01T06:04:03;15.30;90.50
46730;DHT22;32476;50.002;11.854;2023-06-01T06:06:29;15.40;89.40
46730;DHT22;32476;50.002;11.854;2023-06-01T06:08:56;15.40;88.20
46730;DHT22;32476;50.002;11.854;2023-06-01T06:11:23;15.50;87.50
46730;DHT22;32476;50.002;11.854;2023-06-01T06:13:49;15.60;87.80
46730;DHT22;32476;50.002;11.854;2023-06-01T06:16:16;15.60;89.00
46730;DHT22;32476;50.002;11.854;2023-06-01T06:18:43;15.70;89.70
46730;DHT22;32476;50.002;11.854;2023-06-01T06:21:09;15.70;90.60
46730;DHT22;32476;50.002;11.854;2023-06-01T06:23:35;15.80;90.70
46730;DHT22;32476;50.002;11.854;2023-06-01T06:26:06;15.90;89.20
46730;DHT22;32476;50.002;11.854;2023-06-01T06:28:32;16.00;89.20
46730;DHT22;32476;50.002;11.854;2023-06-01T06:30:58;16.00;90.50
46730;DHT22;32476;50.002;11.854;2023-06-01T06:33:26;16.10;87.10
46730;DHT22;32476;50.002;11.854;2023-06-01T06:35:52;16.10;88.80
46730;DHT22;32476;50.002;11.854;2023-06-01T06:38:18;16.20;90.20
46730;DHT22;32476;50.002;11.854;2023-06-01T06:40:46;16.40;89.10
46730;DHT22;32476;50.002;11.854;2023-06-01T06:43:12;16.60;87.60
46730;DHT22;32476;50.002;11.854;2023-06-01T06:45:44;16.70;86.40
46730;DHT22;32476;50.002;11.854;2023-06-01T06:48:11;16.80;85.60
46730;DHT22;32476;50.002;11.854;2023-06-01T06:50:37;17.00;87.20
46730;DHT22;32476;50.002;11.854;2023-06-01T06:53:04;17.10;87.70
46730;DHT22;32476;50.002;11.854;2023-06-01T06:55:32;17.30;84.70
46730;DHT22;32476;50.002;11.854;2023-06-01T06:57:58;17.50;85.80
46730;DHT22;32476;50.002;11.854;2023-06-01T07:00:24;17.80;81.20
46730;DHT22;32476;50.002;11.854;2023-06-01T07:02:56;17.80;80.40
46730;DHT22;32476;50.002;11.854;2023-06-01T07:05:26;17.90;79.70
46730;DHT22;32476;50.002;11.854;2023-06-01T07:07:53;18.20;77.80
46730;DHT22;32476;50.002;11.854;2023-06-01T07:10:19;18.60;78.50
46730;DHT22;32476;50.002;11.854;2023-06-01T07:12:46;19.00;77.40
46730;DHT22;32476;50.002;11.854;2023-06-01T07:15:14;19.20;76.60
46730;DHT22;32476;50.002;11.854;2023-06-01T07:17:42;19.40;73.50
46730;DHT22;32476;50.002;11.854;2023-06-01T07:20:08;19.70;74.40
46730;DHT22;32476;50.002;11.854;2023-06-01T07:22:39;20.00;76.20
46730;DHT22;32476;50.002;11.854;2023-06-01T07:25:06;20.20;74.50
46730;DHT22;32476;50.002;11.854;2023-06-01T07:27:33;20.30;73.70
46730;DHT22;32476;50.002;11.854;2023-06-01T07:30:04;20.50;71.00
46730;DHT22;32476;50.002;11.854;2023-06-01T07:32:33;20.80;70.60
46730;DHT22;32476;50.002;11.854;2023-06-01T07:34:59;21.00;70.80
46730;DHT22;32476;50.002;11.854;2023-06-01T07:37:26;21.10;72.10
46730;DHT22;32476;50.002;11.854;2023-06-01T07:39:56;21.30;71.90
46730;DHT22;32476;50.002;11.854;2023-06-01T07:42:24;21.80;71.80
46730;DHT22;32476;50.002;11.854;2023-06-01T07:44:53;21.60;69.00
46730;DHT22;32476;50.002;11.854;2023-06-01T07:47:19;21.60;66.10
46730;DHT22;32476;50.002;11.854;2023-06-01T07:49:44;22.00;69.50
46730;DHT22;32476;50.002;11.854;2023-06-01T07:52:12;22.30;67.00
46730;DHT22;32476;50.002;11.854;2023-06-01T07:54:38;22.30;68.40
46730;DHT22;32476;50.002;11.854;2023-06-01T07:57:05;22.40;67.50
46730;DHT22;32476;50.002;11.854;2023-06-01T07:59:33;22.40;63.60
46730;DHT22;32476;50.002;11.854;2023-06-01T08:01:59;22.10;64.50
46730;DHT22;32476;50.002;11.854;2023-06-01T08:04:26;22.70;65.10
46730;DHT22;32476;50.002;11.854;2023-06-01T08:06:54;22.90;63.30
46730;DHT22;32476;50.002;11.854;2023-06-01T08:09:22;22.90;64.00
46730;DHT22;32476;50.002;11.854;2023-06-01T08:11:49;22.80;62.80
46730;DHT22;32476;50.002;11.854;2023-06-01T08:14:17;23.00;65.30
46730;DHT22;32476;50.002;11.854;2023-06-01T08:16:44;23.10;63.20
46730;DHT22;32476;50.002;11.854;2023-06-01T08:19:11;22.70;63.70
46730;DHT22;32476;50.002;11.854;2023-06-01T08:21:41;23.00;65.60
46730;DHT22;32476;50.002;11.854;2023-06-01T08:24:07;23.70;67.70
46730;DHT22;32476;50.002;11.854;2023-06-01T08:26:38;23.20;62.10
46730;DHT22;32476;50.002;11.854;2023-06-01T08:29:05;23.30;65.00
46730;DHT22;32476;50.002;11.854;2023-06-01T08:31:31;23.60;64.80
46730;DHT22;32476;50.002;11.854;2023-06-01T08:33:58;24.10;66.00
46730;DHT22;32476;50.002;11.854;2023-06-01T08:36:24;24.30;64.50
46730;DHT22;32476;50.002;11.854;2023-06-01T08:38:53;23.70;63.60
46730;DHT22;32476;50.002;11.854;2023-06-01T08:44:08;24.10;61.30
46730;DHT22;32476;50.002;11.854;2023-06-01T08:46:36;23.70;60.70
46730;DHT22;32476;50.002;11.854;2023-06-01T08:49:05;23.80;60.10
46730;DHT22;32476;50.002;11.854;2023-06-01T08:51:33;23.70;59.60
46730;DHT22;32476;50.002;11.854;2023-06-01T08:54:05;23.70;59.70
46730;DHT22;32476;50.002;11.854;2023-06-01T08:56:34;24.20;62.00
46730;DHT22;32476;50.002;11.854;2023-06-01T08:59:01;23.80;61.20
46730;DHT22;32476;50.002;11.854;2023-06-01T09:01:29;24.40;63.00
46730;DHT22;32476;50.002;11.854;2023-06-01T09:03:55;24.20;55.60
46730;DHT22;32476;50.002;11.854;2023-06-01T09:06:22;24.30;61.50
46730;DHT22;32476;50.002;11.854;2023-06-01T09:08:49;24.60;60.90
46730;DHT22;32476;50.002;11.854;2023-06-01T09:11:15;25.10;60.30
46730;DHT22;32476;50.002;11.854;2023-06-01T09:13:41;25.30;56.90
46730;DHT22;32476;50.002;11.854;2023-06-01T09:16:09;25.40;61.20
46730;DHT22;32476;50.002;11.854;2023-06-01T09:18:35;25.70;59.60
46730;DHT22;32476;50.002;11.854;2023-06-01T09:21:14;25.90;60.50
46730;DHT22;32476;50.002;11.854;2023-06-01T09:23:45;25.60;59.10
46730;DHT22;32476;50.002;11.854;2023-06-01T09:26:14;25.10;58.60
46730;DHT22;32476;50.002;11.854;2023-06-01T09:28:54;25.60;61.20
46730;DHT22;32476;50.002;11.854;2023-06-01T09:34:07;25.60;59.40
46730;DHT22;32476;50.002;11.854;2023-06-01T09:36:35;24.80;59.10
46730;DHT22;32476;50.002;11.854;2023-06-01T09:39:06;24.80;60.50
46730;DHT22;32476;50.002;11.854;2023-06-01T09:41:54;23.60;57.10
46730;DHT22;32476;50.002;11.854;2023-06-01T09:44:28;23.20;60.50
46730;DHT22;32476;50.002;11.854;2023-06-01T09:47:04;23.20;57.70
46730;DHT22;32476;50.002;11.854;2023-06-01T09:49:41;23.80;60.10
46730;DHT22;32476;50.002;11.854;2023-06-01T09:52:11;24.70;60.40
46730;DHT22;32476;50.002;11.854;2023-06-01T09:54:42;24.30;57.10
46730;DHT22;32476;50.002;11.854;2023-06-01T09:57:11;24.20;58.40
46730;DHT22;32476;50.002;11.854;2023-06-01T10:02:19;24.60;57.70
46730;DHT22;32476;50.002;11.854;2023-06-01T10:04:51;24.80;56.90
46730;DHT22;32476;50.002;11.854;2023-06-01T10:07:22;24.90;58.70
46730;DHT22;32476;50.002;11.854;2023-06-01T10:09:50;24.20;56.10
46730;DHT22;32476;50.002;11.854;2023-06-01T10:12:17;25.00;58.10
46730;DHT22;32476;50.002;11.854;2023-06-01T10:14:45;25.60;57.50
46730;DHT22;32476;50.002;11.854;2023-06-01T10:17:13;25.50;56.50
46730;DHT22;32476;50.002;11.854;2023-06-01T10:19:42;25.70;60.20
46730;DHT22;32476;50.002;11.854;2023-06-01T10:22:10;25.70;55.40
46730;DHT22;32476;50.002;11.854;2023-06-01T10:24:37;26.40;59.20
46730;DHT22;32476;50.002;11.854;2023-06-01T10:29:53;25.50;55.30
46730;DHT22;32476;50.002;11.854;2023-06-01T10:32:41;25.70;55.20
46730;DHT22;32476;50.002;11.854;2023-06-01T10:40:37;24.60;55.00
46730;DHT22;32476;50.002;11.854;2023-06-01T10:43:04;25.50;54.30
46730;DHT22;32476;50.002;11.854;2023-06-01T10:48:12;25.60;56.00
46730;DHT22;32476;50.002;11.854;2023-06-01T10:50:39;26.30;55.20
46730;DHT22;32476;50.002;11.854;2023-06-01T10:56:24;26.50;56.00
46730;DHT22;32476;50.002;11.854;2023-06-01T11:04:07;25.10;53.20
46730;DHT22;32476;50.002;11.854;2023-06-01T11:06:35;25.30;55.60
46730;DHT22;32476;50.002;11.854;2023-06-01T11:09:11;24.80;51.80
46730;DHT22;32476;50.002;11.854;2023-06-01T11:14:23;24.70;53.30
46730;DHT22;32476;50.002;11.854;2023-06-01T11:16:54;25.80;56.00
46730;DHT22;32476;50.002;11.854;2023-06-01T11:19:21;26.10;55.10
46730;DHT22;32476;50.002;11.854;2023-06-01T11:21:58;26.10;53.00
46730;DHT22;32476;50.002;11.854;2023-06-01T11:24:32;25.60;55.00
46730;DHT22;32476;50.002;11.854;2023-06-01T11:27:10;25.80;53.40
46730;DHT22;32476;50.002;11.854;2023-06-01T11:29:37;25.80;53.40
46730;DHT22;32476;50.002;11.854;2023-06-01T11:32:05;26.20;53.20
46730;DHT22;32476;50.002;11.854;2023-06-01T11:34:37;26.30;52.30
46730;DHT22;32476;50.002;11.854;2023-06-01T11:37:12;26.90;53.10
46730;DHT22;32476;50.002;11.854;2023-06-01T11:39:41;26.90;51.70
46730;DHT22;32476;50.002;11.854;2023-06-01T11:42:12;26.90;54.30
46730;DHT22;32476;50.002;11.854;2023-06-01T11:44:42;27.20;55.60
46730;DHT22;32476;50.002;11.854;2023-06-01T11:47:11;27.30;50.30
46730;DHT22;32476;50.002;11.854;2023-06-01T11:52:16;27.20;54.80
46730;DHT22;32476;50.002;11.854;2023-06-01T11:54:43;27.80;51.10
46730;DHT22;32476;50.002;11.854;2023-06-01T11:57:09;28.10;50.40
46730;DHT22;32476;50.002;11.854;2023-06-01T11:59:45;27.70;50.00
46730;DHT22;32476;50.002;11.854;2023-06-01T12:02:23;28.30;50.70
46730;DHT22;32476;50.002;11.854;2023-06-01T12:05:06;27.20;50.70
46730;DHT22;32476;50.002;11.854;2023-06-01T12:07:54;27.50;49.90
46730;DHT22;32476;50.002;11.854;2023-06-01T12:10:22;27.10;51.40
46730;DHT22;32476;50.002;11.854;2023-06-01T12:12:48;27.10;52.80
46730;DHT22;32476;50.002;11.854;2023-06-01T12:15:15;27.30;51.60
46730;DHT22;32476;50.002;11.854;2023-06-01T12:17:47;26.40;51.00
46730;DHT22;32476;50.002;11.854;2023-06-01T12:20:37;26.60;51.70
46730;DHT22;32476;50.002;11.854;2023-06-01T12:23:13;27.30;53.60
46730;DHT22;32476;50.002;11.854;2023-06-01T12:26:01;27.50;51.10
46730;DHT22;32476;50.002;11.854;2023-06-01T12:28:28;27.70;49.40
46730;DHT22;32476;50.002;11.854;2023-06-01T12:31:11;26.90;50.70
46730;DHT22;32476;50.002;11.854;2023-06-01T12:33:41;27.00;51.20
46730;DHT22;32476;50.002;11.854;2023-06-01T12:36:10;27.20;51.60
46730;DHT22;32476;50.002;11.854;2023-06-01T12:41:19;26.50;50.50
46730;DHT22;32476;50.002;11.854;2023-06-01T12:43:50;26.90;50.80
46730;DHT22;32476;50.002;11.854;2023-06-01T12:46:19;26.60;49.10
46730;DHT22;32476;50.002;11.854;2023-06-01T12:48:54;27.60;49.80
46730;DHT22;32476;50.002;11.854;2023-06-01T12:51:38;26.60;48.70
46730;DHT22;32476;50.002;11.854;2023-06-01T12:54:04;26.40;50.30
46730;DHT22;32476;50.002;11.854;2023-06-01T12:56:30;26.30;48.90
46730;DHT22;32476;50.002;11.854;2023-06-01T12:58:57;26.20;51.70
46730;DHT22;32476;50.002;11.854;2023-06-01T13:01:23;27.10;50.80
46730;DHT22;32476;50.002;11.854;2023-06-01T13:03:49;28.00;52.00
46730;DHT22;32476;50.002;11.854;2023-06-01T13:06:19;28.10;51.60
46730;DHT22;32476;50.002;11.854;2023-06-01T13:08:45;28.30;47.50
46730;DHT22;32476;50.002;11.854;2023-06-01T13:11:12;28.20;50.40
46730;DHT22;32476;50.002;11.854;2023-06-01T13:13:40;27.70;47.20
46730;DHT22;32476;50.002;11.854;2023-06-01T13:16:06;27.60;50.10
46730;DHT22;32476;50.002;11.854;2023-06-01T13:18:33;27.50;50.30
46730;DHT22;32476;50.002;11.854;2023-06-01T13:21:01;28.00;50.70
46730;DHT22;32476;50.002;11.854;2023-06-01T13:23:28;28.50;48.90
46730;DHT22;32476;50.002;11.854;2023-06-01T13:25:54;27.80;48.10
46730;DHT22;32476;50.002;11.854;2023-06-01T13:28:22;26.90;49.00
46730;DHT22;32476;50.002;11.854;2023-06-01T13:30:48;27.30;48.80
46730;DHT22;32476;50.002;11.854;2023-06-01T13:33:14;27.00;48.70
46730;DHT22;32476;50.002;11.854;2023-06-01T13:35:43;27.10;49.20
46730;DHT22;32476;50.002;11.854;2023-06-01T13:38:09;27.60;48.70
46730;DHT22;32476;50.002;11.854;2023-06-01T13:40:35;27.30;49.70
46730;DHT22;32476;50.002;11.854;2023-06-01T13:43:03;27.60;49.20
46730;DHT22;32476;50.002;11.854;2023-06-01T13:45:29;26.90;47.70
46730;DHT22;32476;50.002;11.854;2023-06-01T13:47:56;27.50;47.10
46730;DHT22;32476;50.002;11.854;2023-06-01T13:50:25;27.40;50.30
46730;DHT22;32476;50.002;11.854;2023-06-01T13:52:52;27.60;49.00
46730;DHT22;32476;50.002;11.854;2023-06-01T13:55:20;27.80;47.40
46730;DHT22;32476;50.002;11.854;2023-06-01T13:57:49;27.90;49.60
46730;DHT22;32476;50.002;11.854;2023-06-01T14:00:16;27.80;47.10
46730;DHT22;32476;50.002;11.854;2023-06-01T14:02:43;27.70;46.50
46730;DHT22;32476;50.002;11.854;2023-06-01T14:05:10;28.10;50.40
46730;DHT22;32476;50.002;11.854;2023-06-01T14:07:38;29.10;47.50
46730;DHT22;32476;50.002;11.854;2023-06-01T14:10:04;29.20;48.90
46730;DHT22;32476;50.002;11.854;2023-06-01T14:12:33;29.10;47.40
46730;DHT22;32476;50.002;11.854;2023-06-01T14:14:59;29.30;48.00
46730;DHT22;32476;50.002;11.854;2023-06-01T14:17:25;29.00;45.10
46730;DHT22;32476;50.002;11.854;2023-06-01T14:19:53;28.60;47.50
46730;DHT22;32476;50.002;11.854;2023-06-01T14:22:19;28.50;48.70
46730;DHT22;32476;50.002;11.854;2023-06-01T14:24:45;28.50;47.80
46730;DHT22;32476;50.002;11.854;2023-06-01T14:27:13;28.70;47.60
46730;DHT22;32476;50.002;11.854;2023-06-01T14:29:39;27.00;47.90
46730;DHT22;32476;50.002;11.854;2023-06-01T14:32:06;26.80;48.30
46730;DHT22;32476;50.002;11.854;2023-06-01T14:34:35;26.70;50.20
46730;DHT22;32476;50.002;11.854;2023-06-01T14:37:01;27.10;50.00
46730;DHT22;32476;50.002;11.854;2023-06-01T14:39:27;26.90;50.60
46730;DHT22;32476;50.002;11.854;2023-06-01T14:41:55;27.10;50.10
46730;DHT22;32476;50.002;11.854;2023-06-01T14:44:21;27.10;49.80
46730;DHT22;32476;50.002;11.854;2023-06-01T14:46:48;26.70;50.90
46730;DHT22;32476;50.002;11.854;2023-06-01T14:49:16;26.20;52.20
46730;DHT22;32476;50.002;11.854;2023-06-01T14:51:41;25.10;53.80
46730;DHT22;32476;50.002;11.854;2023-06-01T14:54:07;25.20;56.40
46730;DHT22;32476;50.002;11.854;2023-06-01T14:56:38;25.00;56.00
46730;DHT22;32476;50.002;11.854;2023-06-01T14:59:05;25.30;55.90
46730;DHT22;32476;50.002;11.854;2023-06-01T15:01:31;24.70;56.80
46730;DHT22;32476;50.002;11.854;2023-06-01T15:03:58;24.20;56.60
46730;DHT22;32476;50.002;11.854;2023-06-01T15:06:25;24.20;56.10
46730;DHT22;32476;50.002;11.854;2023-06-01T15:08:51;24.20;55.20
46730;DHT22;32476;50.002;11.854;2023-06-01T15:11:18;24.20;56.90
46730;DHT22;32476;50.002;11.854;2023-06-01T15:13:46;24.90;58.60
46730;DHT22;32476;50.002;11.854;2023-06-01T15:16:12;25.70;58.30
46730;DHT22;32476;50.002;11.854;2023-06-01T15:18:39;26.30;54.60
46730;DHT22;32476;50.002;11.854;2023-06-01T15:21:05;25.60;53.40
46730;DHT22;32476;50.002;11.854;2023-06-01T15:23:31;25.70;54.30
46730;DHT22;32476;50.002;11.854;2023-06-01T15:25:59;25.40;55.00
46730;DHT22;32476;50.002;11.854;2023-06-01T15:28:25;25.20;55.00
46730;DHT22;32476;50.002;11.854;2023-06-01T15:30:52;24.80;53.30
46730;DHT22;32476;50.002;11.854;2023-06-01T15:33:20;25.50;57.30
46730;DHT22;32476;50.002;11.854;2023-06-01T15:35:46;25.30;55.10
46730;DHT22;32476;50.002;11.854;2023-06-01T15:38:12;25.00;54.90
46730;DHT22;32476;50.002;11.854;2023-06-01T15:40:39;25.20;56.10
46730;DHT22;32476;50.002;11.854;2023-06-01T15:43:06;25.30;55.30
46730;DHT22;32476;50.002;11.854;2023-06-01T15:45:33;25.00;54.40
46730;DHT22;32476;50.002;11.854;2023-06-01T15:48:00;25.30;53.20
46730;DHT22;32476;50.002;11.854;2023-06-01T15:50:26;24.60;53.60
46730;DHT22;32476;50.002;11.854;2023-06-01T15:52:52;24.60;55.00
46730;DHT22;32476;50.002;11.854;2023-06-01T15:55:25;25.10;55.20
46730;DHT22;32476;50.002;11.854;2023-06-01T15:57:51;24.70;54.90
46730;DHT22;32476;50.002;11.854;2023-06-01T16:00:17;24.70;55.50
46730;DHT22;32476;50.002;11.854;2023-06-01T16:02:46;24.90;57.70
46730;DHT22;32476;50.002;11.854;2023-06-01T16:05:12;25.20;56.90
46730;DHT22;32476;50.002;11.854;2023-06-01T16:07:39;24.60;55.00